Terminal Aerodrome Forecast
Issued by NWS

Home | Current Version | Previous Version | Text Only | Print | Product List | Glossary On
Versions: 1 2 3 4 5 6 7 8 9 10 11 12 13 14 15 16 17 18 19 20 21 22 23 24 25 26 27 28
691
FTUS44 KSJT 180938 AAA
TAFJCT
TAF AMD
KJCT 180938Z 1810/1906 03006KT 4SM BR OVC007
      TEMPO 1810/1811 3SM -TSRA OVC012CB
     FM181200 VRB04KT 3SM BR OVC005
     FM181900 VRB04KT P6SM BKN020=

USA.gov is the U.S. government's official web portal to all federal, state and local government web resources and services.